Findley Lake, New York
Current Conditions -  °F | °C
As of 10:51 AM on Wednesday 26 Nov 2014 (Local Time) from KERI Reporting Station
Overcast Overcast  
Wind Chill: 28°   Ceiling: 3300
Heat Index: 36°   Visibility: 10mi
Dew Point: 25°   Wind: 10mph
Humidity: 64%   Direction: 70°ENE
Pressure: 30.13"   Gusts: NA
Location:  42.12°N, 79.73°W
Report Text: KERI 261551Z 07009KT 10SM OVC033 02/M04 A3013 RMK AO2 SLP209 T00221039
Loading
Personal Weather Stations






























Interactive Weather Map New forecast layout! Learn more

10-Day Weather Forecast

Advertisements
Track Severe Weather on mobile